sensor_id;sensor_type;location;lat;lon;timestamp;P1;durP1;ratioP1;P2;durP2;ratioP2
46613;SDS011;32338;50.430;6.806;2022-08-24T00:00:21;1.23;;;0.77;;
46613;SDS011;32338;50.430;6.806;2022-08-24T00:02:48;3.70;;;0.88;;
46613;SDS011;32338;50.430;6.806;2022-08-24T00:05:17;4.50;;;0.65;;
46613;SDS011;32338;50.430;6.806;2022-08-24T00:07:46;1.73;;;0.90;;
46613;SDS011;32338;50.430;6.806;2022-08-24T00:10:13;0.95;;;0.93;;
46613;SDS011;32338;50.430;6.806;2022-08-24T00:12:40;1.40;;;0.82;;
46613;SDS011;32338;50.430;6.806;2022-08-24T00:15:08;3.58;;;1.15;;
46613;SDS011;32338;50.430;6.806;2022-08-24T00:17:36;2.08;;;0.90;;
46613;SDS011;32338;50.430;6.806;2022-08-24T00:20:04;2.88;;;1.27;;
46613;SDS011;32338;50.430;6.806;2022-08-24T00:22:32;1.92;;;1.10;;
46613;SDS011;32338;50.430;6.806;2022-08-24T00:24:59;5.25;;;1.10;;
46613;SDS011;32338;50.430;6.806;2022-08-24T00:27:26;4.75;;;0.82;;
46613;SDS011;32338;50.430;6.806;2022-08-24T00:29:53;2.50;;;0.70;;
46613;SDS011;32338;50.430;6.806;2022-08-24T00:32:19;2.30;;;0.70;;
46613;SDS011;32338;50.430;6.806;2022-08-24T00:34:46;4.00;;;1.17;;
46613;SDS011;32338;50.430;6.806;2022-08-24T00:37:13;1.85;;;1.15;;
46613;SDS011;32338;50.430;6.806;2022-08-24T00:39:41;1.25;;;0.80;;
46613;SDS011;32338;50.430;6.806;2022-08-24T00:42:07;2.92;;;1.52;;
46613;SDS011;32338;50.430;6.806;2022-08-24T00:44:34;2.65;;;0.90;;
46613;SDS011;32338;50.430;6.806;2022-08-24T00:47:01;1.00;;;0.80;;
46613;SDS011;32338;50.430;6.806;2022-08-24T00:49:32;0.85;;;0.68;;
46613;SDS011;32338;50.430;6.806;2022-08-24T00:52:04;1.52;;;0.90;;
46613;SDS011;32338;50.430;6.806;2022-08-24T00:54:36;2.95;;;0.93;;
46613;SDS011;32338;50.430;6.806;2022-08-24T00:57:07;1.48;;;1.00;;
46613;SDS011;32338;50.430;6.806;2022-08-24T00:59:37;1.15;;;0.75;;
46613;SDS011;32338;50.430;6.806;2022-08-24T01:02:08;1.70;;;0.95;;
46613;SDS011;32338;50.430;6.806;2022-08-24T01:04:39;2.67;;;1.00;;
46613;SDS011;32338;50.430;6.806;2022-08-24T01:07:10;2.38;;;0.80;;
46613;SDS011;32338;50.430;6.806;2022-08-24T01:09:37;3.45;;;0.98;;
46613;SDS011;32338;50.430;6.806;2022-08-24T01:12:04;3.35;;;1.00;;
46613;SDS011;32338;50.430;6.806;2022-08-24T01:14:32;1.40;;;0.77;;
46613;SDS011;32338;50.430;6.806;2022-08-24T01:16:59;4.95;;;1.10;;
46613;SDS011;32338;50.430;6.806;2022-08-24T01:19:44;1.95;;;1.10;;
46613;SDS011;32338;50.430;6.806;2022-08-24T01:22:31;3.10;;;1.13;;
46613;SDS011;32338;50.430;6.806;2022-08-24T01:25:08;2.00;;;1.02;;
46613;SDS011;32338;50.430;6.806;2022-08-24T01:27:35;3.08;;;0.90;;
46613;SDS011;32338;50.430;6.806;2022-08-24T01:30:04;2.17;;;0.93;;
46613;SDS011;32338;50.430;6.806;2022-08-24T01:32:34;1.63;;;0.88;;
46613;SDS011;32338;50.430;6.806;2022-08-24T01:35:01;1.98;;;1.20;;
46613;SDS011;32338;50.430;6.806;2022-08-24T01:37:27;1.05;;;0.82;;
46613;SDS011;32338;50.430;6.806;2022-08-24T01:39:57;1.70;;;0.80;;
46613;SDS011;32338;50.430;6.806;2022-08-24T01:42:27;3.85;;;0.98;;
46613;SDS011;32338;50.430;6.806;2022-08-24T01:44:54;1.27;;;0.85;;
46613;SDS011;32338;50.430;6.806;2022-08-24T01:47:21;1.52;;;0.93;;
46613;SDS011;32338;50.430;6.806;2022-08-24T01:49:48;1.27;;;1.00;;
46613;SDS011;32338;50.430;6.806;2022-08-24T01:52:15;3.40;;;0.90;;
46613;SDS011;32338;50.430;6.806;2022-08-24T01:54:42;1.60;;;0.85;;
46613;SDS011;32338;50.430;6.806;2022-08-24T01:57:09;3.80;;;1.30;;
46613;SDS011;32338;50.430;6.806;2022-08-24T01:59:38;2.88;;;0.90;;
46613;SDS011;32338;50.430;6.806;2022-08-24T02:02:07;2.10;;;0.95;;
46613;SDS011;32338;50.430;6.806;2022-08-24T02:04:36;3.50;;;0.90;;
46613;SDS011;32338;50.430;6.806;2022-08-24T02:07:03;3.75;;;1.17;;
46613;SDS011;32338;50.430;6.806;2022-08-24T02:09:30;1.20;;;0.90;;
46613;SDS011;32338;50.430;6.806;2022-08-24T02:11:57;2.95;;;1.00;;
46613;SDS011;32338;50.430;6.806;2022-08-24T02:14:24;1.67;;;0.90;;
46613;SDS011;32338;50.430;6.806;2022-08-24T02:16:53;2.22;;;1.15;;
46613;SDS011;32338;50.430;6.806;2022-08-24T02:19:20;1.60;;;1.08;;
46613;SDS011;32338;50.430;6.806;2022-08-24T02:21:47;1.00;;;0.90;;
46613;SDS011;32338;50.430;6.806;2022-08-24T02:24:13;1.33;;;0.85;;
46613;SDS011;32338;50.430;6.806;2022-08-24T02:26:40;2.90;;;0.98;;
46613;SDS011;32338;50.430;6.806;2022-08-24T02:29:07;2.13;;;0.90;;
46613;SDS011;32338;50.430;6.806;2022-08-24T02:31:34;3.15;;;0.90;;
46613;SDS011;32338;50.430;6.806;2022-08-24T02:34:02;1.58;;;0.90;;
46613;SDS011;32338;50.430;6.806;2022-08-24T02:36:30;2.25;;;0.98;;
46613;SDS011;32338;50.430;6.806;2022-08-24T02:38:57;2.42;;;0.95;;
46613;SDS011;32338;50.430;6.806;2022-08-24T02:41:24;2.55;;;1.27;;
46613;SDS011;32338;50.430;6.806;2022-08-24T02:43:51;3.15;;;1.10;;
46613;SDS011;32338;50.430;6.806;2022-08-24T02:46:18;1.60;;;0.88;;
46613;SDS011;32338;50.430;6.806;2022-08-24T02:48:45;4.63;;;0.90;;
46613;SDS011;32338;50.430;6.806;2022-08-24T02:51:18;3.80;;;1.20;;
46613;SDS011;32338;50.430;6.806;2022-08-24T02:53:46;1.63;;;0.90;;
46613;SDS011;32338;50.430;6.806;2022-08-24T02:56:12;1.55;;;1.08;;
46613;SDS011;32338;50.430;6.806;2022-08-24T02:58:39;1.42;;;0.85;;
46613;SDS011;32338;50.430;6.806;2022-08-24T03:01:07;2.95;;;0.93;;
46613;SDS011;32338;50.430;6.806;2022-08-24T03:03:34;2.05;;;0.90;;
46613;SDS011;32338;50.430;6.806;2022-08-24T03:06:01;1.42;;;0.88;;
46613;SDS011;32338;50.430;6.806;2022-08-24T03:08:29;3.10;;;1.00;;
46613;SDS011;32338;50.430;6.806;2022-08-24T03:10:56;1.38;;;0.88;;
46613;SDS011;32338;50.430;6.806;2022-08-24T03:13:24;3.45;;;0.90;;
46613;SDS011;32338;50.430;6.806;2022-08-24T03:15:51;3.08;;;1.20;;
46613;SDS011;32338;50.430;6.806;2022-08-24T03:18:19;1.13;;;0.80;;
46613;SDS011;32338;50.430;6.806;2022-08-24T03:20:46;1.27;;;1.00;;
46613;SDS011;32338;50.430;6.806;2022-08-24T03:23:13;2.92;;;1.10;;
46613;SDS011;32338;50.430;6.806;2022-08-24T03:25:41;2.17;;;1.10;;
46613;SDS011;32338;50.430;6.806;2022-08-24T03:28:08;2.47;;;1.15;;
46613;SDS011;32338;50.430;6.806;2022-08-24T03:30:36;1.77;;;1.13;;
46613;SDS011;32338;50.430;6.806;2022-08-24T03:33:03;2.75;;;1.17;;
46613;SDS011;32338;50.430;6.806;2022-08-24T03:35:30;2.00;;;1.13;;
46613;SDS011;32338;50.430;6.806;2022-08-24T03:37:57;5.07;;;1.58;;
46613;SDS011;32338;50.430;6.806;2022-08-24T03:40:24;4.35;;;1.25;;
46613;SDS011;32338;50.430;6.806;2022-08-24T03:42:53;5.15;;;1.23;;
46613;SDS011;32338;50.430;6.806;2022-08-24T03:45:20;2.42;;;1.17;;
46613;SDS011;32338;50.430;6.806;2022-08-24T03:47:48;2.65;;;1.15;;
46613;SDS011;32338;50.430;6.806;2022-08-24T03:50:15;2.58;;;0.95;;
46613;SDS011;32338;50.430;6.806;2022-08-24T03:52:42;10.30;;;2.05;;
46613;SDS011;32338;50.430;6.806;2022-08-24T03:55:09;5.03;;;1.13;;
46613;SDS011;32338;50.430;6.806;2022-08-24T03:57:37;6.18;;;1.60;;
46613;SDS011;32338;50.430;6.806;2022-08-24T04:00:07;2.40;;;1.10;;
46613;SDS011;32338;50.430;6.806;2022-08-24T04:02:36;3.10;;;1.50;;
46613;SDS011;32338;50.430;6.806;2022-08-24T04:05:03;3.70;;;1.13;;
46613;SDS011;32338;50.430;6.806;2022-08-24T04:07:31;6.38;;;1.02;;
46613;SDS011;32338;50.430;6.806;2022-08-24T04:09:59;3.53;;;1.27;;
46613;SDS011;32338;50.430;6.806;2022-08-24T04:12:26;5.85;;;1.10;;
46613;SDS011;32338;50.430;6.806;2022-08-24T04:14:53;2.75;;;1.20;;
46613;SDS011;32338;50.430;6.806;2022-08-24T04:17:21;2.38;;;1.13;;
46613;SDS011;32338;50.430;6.806;2022-08-24T04:19:48;3.13;;;1.13;;
46613;SDS011;32338;50.430;6.806;2022-08-24T04:22:24;4.03;;;1.45;;
46613;SDS011;32338;50.430;6.806;2022-08-24T04:24:52;2.72;;;1.45;;
46613;SDS011;32338;50.430;6.806;2022-08-24T04:27:19;1.65;;;1.20;;
46613;SDS011;32338;50.430;6.806;2022-08-24T04:29:46;1.48;;;1.15;;
46613;SDS011;32338;50.430;6.806;2022-08-24T04:32:13;3.80;;;1.25;;
46613;SDS011;32338;50.430;6.806;2022-08-24T04:34:42;3.33;;;1.25;;
46613;SDS011;32338;50.430;6.806;2022-08-24T04:37:09;1.65;;;1.10;;
46613;SDS011;32338;50.430;6.806;2022-08-24T04:39:36;3.92;;;1.10;;
46613;SDS011;32338;50.430;6.806;2022-08-24T04:42:04;3.85;;;1.20;;
46613;SDS011;32338;50.430;6.806;2022-08-24T04:44:31;2.92;;;1.45;;
46613;SDS011;32338;50.430;6.806;2022-08-24T04:46:57;1.67;;;1.10;;
46613;SDS011;32338;50.430;6.806;2022-08-24T04:49:25;7.72;;;1.25;;
46613;SDS011;32338;50.430;6.806;2022-08-24T04:51:53;2.15;;;1.10;;
46613;SDS011;32338;50.430;6.806;2022-08-24T04:54:20;5.63;;;1.40;;
46613;SDS011;32338;50.430;6.806;2022-08-24T04:56:47;2.60;;;1.30;;
46613;SDS011;32338;50.430;6.806;2022-08-24T04:59:13;4.15;;;1.30;;
46613;SDS011;32338;50.430;6.806;2022-08-24T05:01:40;1.77;;;1.30;;
46613;SDS011;32338;50.430;6.806;2022-08-24T05:04:08;4.90;;;1.70;;
46613;SDS011;32338;50.430;6.806;2022-08-24T05:06:35;2.20;;;1.77;;
46613;SDS011;32338;50.430;6.806;2022-08-24T05:09:03;4.90;;;1.38;;
46613;SDS011;32338;50.430;6.806;2022-08-24T05:11:31;1.50;;;1.02;;
46613;SDS011;32338;50.430;6.806;2022-08-24T05:14:00;2.63;;;1.38;;
46613;SDS011;32338;50.430;6.806;2022-08-24T05:16:26;6.35;;;1.52;;
46613;SDS011;32338;50.430;6.806;2022-08-24T05:18:53;2.78;;;1.50;;
46613;SDS011;32338;50.430;6.806;2022-08-24T05:21:21;2.75;;;1.30;;
46613;SDS011;32338;50.430;6.806;2022-08-24T05:23:49;5.18;;;1.40;;
46613;SDS011;32338;50.430;6.806;2022-08-24T05:26:17;5.43;;;1.33;;
46613;SDS011;32338;50.430;6.806;2022-08-24T05:28:50;1.50;;;1.40;;
46613;SDS011;32338;50.430;6.806;2022-08-24T05:31:19;1.38;;;1.13;;
46613;SDS011;32338;50.430;6.806;2022-08-24T05:33:47;2.30;;;1.63;;
46613;SDS011;32338;50.430;6.806;2022-08-24T05:36:16;2.10;;;1.40;;
46613;SDS011;32338;50.430;6.806;2022-08-24T05:38:44;3.38;;;1.40;;
46613;SDS011;32338;50.430;6.806;2022-08-24T05:41:11;2.50;;;1.30;;
46613;SDS011;32338;50.430;6.806;2022-08-24T05:43:40;5.35;;;1.60;;
46613;SDS011;32338;50.430;6.806;2022-08-24T05:46:06;2.47;;;1.50;;
46613;SDS011;32338;50.430;6.806;2022-08-24T05:48:33;5.82;;;1.88;;
46613;SDS011;32338;50.430;6.806;2022-08-24T05:51:01;2.78;;;1.58;;
46613;SDS011;32338;50.430;6.806;2022-08-24T05:53:28;4.95;;;1.50;;
46613;SDS011;32338;50.430;6.806;2022-08-24T05:55:55;2.65;;;1.50;;
46613;SDS011;32338;50.430;6.806;2022-08-24T05:58:22;2.97;;;1.80;;
46613;SDS011;32338;50.430;6.806;2022-08-24T06:00:50;2.58;;;1.33;;
46613;SDS011;32338;50.430;6.806;2022-08-24T06:03:16;4.40;;;1.60;;
46613;SDS011;32338;50.430;6.806;2022-08-24T06:05:43;4.50;;;1.50;;
46613;SDS011;32338;50.430;6.806;2022-08-24T06:08:12;5.15;;;1.52;;
46613;SDS011;32338;50.430;6.806;2022-08-24T06:10:40;2.95;;;1.70;;
46613;SDS011;32338;50.430;6.806;2022-08-24T06:13:07;5.20;;;1.63;;
46613;SDS011;32338;50.430;6.806;2022-08-24T06:15:34;2.85;;;1.55;;
46613;SDS011;32338;50.430;6.806;2022-08-24T06:18:04;2.75;;;1.67;;
46613;SDS011;32338;50.430;6.806;2022-08-24T06:20:31;2.45;;;1.40;;
46613;SDS011;32338;50.430;6.806;2022-08-24T06:23:02;4.13;;;1.60;;
46613;SDS011;32338;50.430;6.806;2022-08-24T06:25:29;2.25;;;1.40;;
46613;SDS011;32338;50.430;6.806;2022-08-24T06:28:13;3.63;;;1.83;;
46613;SDS011;32338;50.430;6.806;2022-08-24T06:30:39;2.58;;;1.83;;
46613;SDS011;32338;50.430;6.806;2022-08-24T06:33:08;3.15;;;1.60;;
46613;SDS011;32338;50.430;6.806;2022-08-24T06:35:35;3.78;;;1.63;;
46613;SDS011;32338;50.430;6.806;2022-08-24T06:38:02;3.55;;;1.90;;
46613;SDS011;32338;50.430;6.806;2022-08-24T06:40:28;2.95;;;1.35;;
46613;SDS011;32338;50.430;6.806;2022-08-24T06:42:55;6.72;;;1.50;;
46613;SDS011;32338;50.430;6.806;2022-08-24T06:45:26;4.10;;;1.70;;
46613;SDS011;32338;50.430;6.806;2022-08-24T06:47:53;2.92;;;1.40;;
46613;SDS011;32338;50.430;6.806;2022-08-24T06:50:21;2.05;;;1.73;;
46613;SDS011;32338;50.430;6.806;2022-08-24T06:52:48;4.47;;;1.58;;
46613;SDS011;32338;50.430;6.806;2022-08-24T06:55:15;7.05;;;1.70;;
46613;SDS011;32338;50.430;6.806;2022-08-24T06:57:42;3.85;;;1.77;;
46613;SDS011;32338;50.430;6.806;2022-08-24T07:00:09;3.88;;;1.90;;
46613;SDS011;32338;50.430;6.806;2022-08-24T07:02:36;1.70;;;1.48;;
46613;SDS011;32338;50.430;6.806;2022-08-24T07:05:03;4.28;;;1.65;;
46613;SDS011;32338;50.430;6.806;2022-08-24T07:07:31;3.33;;;1.77;;
46613;SDS011;32338;50.430;6.806;2022-08-24T07:09:58;2.00;;;1.65;;
46613;SDS011;32338;50.430;6.806;2022-08-24T07:12:25;4.43;;;1.80;;
46613;SDS011;32338;50.430;6.806;2022-08-24T07:14:52;5.95;;;1.75;;
46613;SDS011;32338;50.430;6.806;2022-08-24T07:17:19;3.10;;;1.48;;
46613;SDS011;32338;50.430;6.806;2022-08-24T07:19:47;1.88;;;1.55;;
46613;SDS011;32338;50.430;6.806;2022-08-24T07:22:13;1.60;;;1.42;;
46613;SDS011;32338;50.430;6.806;2022-08-24T07:24:41;3.05;;;1.38;;
46613;SDS011;32338;50.430;6.806;2022-08-24T07:27:08;4.10;;;1.60;;
46613;SDS011;32338;50.430;6.806;2022-08-24T07:29:34;4.63;;;1.92;;
46613;SDS011;32338;50.430;6.806;2022-08-24T07:32:02;4.72;;;1.52;;
46613;SDS011;32338;50.430;6.806;2022-08-24T07:34:29;3.63;;;1.58;;
46613;SDS011;32338;50.430;6.806;2022-08-24T07:36:56;5.10;;;1.95;;
46613;SDS011;32338;50.430;6.806;2022-08-24T07:39:24;2.40;;;1.55;;
46613;SDS011;32338;50.430;6.806;2022-08-24T07:41:53;4.53;;;1.85;;
46613;SDS011;32338;50.430;6.806;2022-08-24T07:44:21;5.05;;;1.48;;
46613;SDS011;32338;50.430;6.806;2022-08-24T07:46:48;2.75;;;1.45;;
46613;SDS011;32338;50.430;6.806;2022-08-24T07:49:16;6.78;;;1.98;;
46613;SDS011;32338;50.430;6.806;2022-08-24T07:51:43;3.75;;;1.30;;
46613;SDS011;32338;50.430;6.806;2022-08-24T07:54:09;4.75;;;1.90;;
46613;SDS011;32338;50.430;6.806;2022-08-24T07:56:37;3.97;;;1.63;;
46613;SDS011;32338;50.430;6.806;2022-08-24T07:59:05;3.97;;;1.70;;
46613;SDS011;32338;50.430;6.806;2022-08-24T08:01:31;4.63;;;1.60;;
46613;SDS011;32338;50.430;6.806;2022-08-24T08:03:58;7.72;;;1.40;;
46613;SDS011;32338;50.430;6.806;2022-08-24T08:06:25;8.13;;;1.40;;
46613;SDS011;32338;50.430;6.806;2022-08-24T08:08:51;6.78;;;1.50;;
46613;SDS011;32338;50.430;6.806;2022-08-24T08:11:18;3.13;;;1.27;;
46613;SDS011;32338;50.430;6.806;2022-08-24T08:13:45;2.92;;;1.33;;
46613;SDS011;32338;50.430;6.806;2022-08-24T08:16:13;8.95;;;1.73;;
46613;SDS011;32338;50.430;6.806;2022-08-24T08:18:39;3.92;;;1.80;;
46613;SDS011;32338;50.430;6.806;2022-08-24T08:21:06;3.08;;;1.50;;
46613;SDS011;32338;50.430;6.806;2022-08-24T08:23:54;8.98;;;1.80;;
46613;SDS011;32338;50.430;6.806;2022-08-24T08:26:38;3.10;;;1.40;;
46613;SDS011;32338;50.430;6.806;2022-08-24T08:29:05;5.25;;;1.30;;
46613;SDS011;32338;50.430;6.806;2022-08-24T08:31:33;7.68;;;1.45;;
46613;SDS011;32338;50.430;6.806;2022-08-24T08:34:00;3.25;;;1.52;;
46613;SDS011;32338;50.430;6.806;2022-08-24T08:36:26;5.68;;;1.55;;
46613;SDS011;32338;50.430;6.806;2022-08-24T08:38:53;4.00;;;1.70;;
46613;SDS011;32338;50.430;6.806;2022-08-24T08:44:34;3.05;;;1.45;;
46613;SDS011;32338;50.430;6.806;2022-08-24T08:47:14;4.53;;;1.50;;
46613;SDS011;32338;50.430;6.806;2022-08-24T08:49:56;3.22;;;1.25;;
46613;SDS011;32338;50.430;6.806;2022-08-24T08:55:40;2.47;;;1.30;;
46613;SDS011;32338;50.430;6.806;2022-08-24T08:58:14;2.38;;;1.27;;
46613;SDS011;32338;50.430;6.806;2022-08-24T09:00:54;8.25;;;1.60;;
46613;SDS011;32338;50.430;6.806;2022-08-24T09:03:31;5.63;;;1.23;;
46613;SDS011;32338;50.430;6.806;2022-08-24T09:06:10;2.72;;;1.00;;
46613;SDS011;32338;50.430;6.806;2022-08-24T09:08:51;5.47;;;1.10;;
46613;SDS011;32338;50.430;6.806;2022-08-24T09:11:28;6.85;;;1.50;;
46613;SDS011;32338;50.430;6.806;2022-08-24T09:14:12;5.93;;;1.10;;
46613;SDS011;32338;50.430;6.806;2022-08-24T09:16:57;5.65;;;1.10;;
46613;SDS011;32338;50.430;6.806;2022-08-24T09:19:40;5.32;;;1.20;;
46613;SDS011;32338;50.430;6.806;2022-08-24T09:22:17;5.00;;;1.25;;
46613;SDS011;32338;50.430;6.806;2022-08-24T09:27:38;2.72;;;1.00;;
46613;SDS011;32338;50.430;6.806;2022-08-24T09:30:12;5.93;;;1.38;;
46613;SDS011;32338;50.430;6.806;2022-08-24T09:32:56;2.55;;;1.50;;
46613;SDS011;32338;50.430;6.806;2022-08-24T09:35:32;2.70;;;1.23;;
46613;SDS011;32338;50.430;6.806;2022-08-24T09:38:12;3.72;;;1.27;;
46613;SDS011;32338;50.430;6.806;2022-08-24T09:40:53;3.60;;;1.20;;
46613;SDS011;32338;50.430;6.806;2022-08-24T09:43:57;3.67;;;1.38;;
46613;SDS011;32338;50.430;6.806;2022-08-24T09:46:47;1.50;;;1.17;;
46613;SDS011;32338;50.430;6.806;2022-08-24T09:49:40;5.57;;;1.10;;
46613;SDS011;32338;50.430;6.806;2022-08-24T09:55:59;5.45;;;1.30;;
46613;SDS011;32338;50.430;6.806;2022-08-24T09:58:41;5.20;;;1.25;;
46613;SDS011;32338;50.430;6.806;2022-08-24T10:01:22;2.13;;;1.40;;
46613;SDS011;32338;50.430;6.806;2022-08-24T10:04:05;2.47;;;1.40;;
46613;SDS011;32338;50.430;6.806;2022-08-24T10:06:42;5.43;;;1.27;;
46613;SDS011;32338;50.430;6.806;2022-08-24T10:09:34;2.28;;;1.20;;
46613;SDS011;32338;50.430;6.806;2022-08-24T10:12:27;2.05;;;1.30;;
46613;SDS011;32338;50.430;6.806;2022-08-24T10:15:06;7.32;;;1.30;;
46613;SDS011;32338;50.430;6.806;2022-08-24T10:17:38;4.20;;;1.20;;
46613;SDS011;32338;50.430;6.806;2022-08-24T10:20:22;2.38;;;1.20;;
46613;SDS011;32338;50.430;6.806;2022-08-24T10:22:59;2.10;;;1.15;;
46613;SDS011;32338;50.430;6.806;2022-08-24T10:25:39;3.08;;;1.60;;
46613;SDS011;32338;50.430;6.806;2022-08-24T10:28:23;1.70;;;1.10;;
46613;SDS011;32338;50.430;6.806;2022-08-24T10:31:05;3.20;;;1.60;;
46613;SDS011;32338;50.430;6.806;2022-08-24T10:33:35;1.85;;;1.30;;
46613;SDS011;32338;50.430;6.806;2022-08-24T10:36:37;2.45;;;1.73;;
46613;SDS011;32338;50.430;6.806;2022-08-24T10:39:19;3.15;;;1.30;;
46613;SDS011;32338;50.430;6.806;2022-08-24T10:45:38;2.53;;;1.40;;
46613;SDS011;32338;50.430;6.806;2022-08-24T10:48:26;4.63;;;1.55;;
46613;SDS011;32338;50.430;6.806;2022-08-24T10:51:12;4.93;;;1.50;;
46613;SDS011;32338;50.430;6.806;2022-08-24T10:53:52;4.75;;;1.70;;
46613;SDS011;32338;50.430;6.806;2022-08-24T10:56:26;3.72;;;1.50;;
46613;SDS011;32338;50.430;6.806;2022-08-24T10:58:58;2.70;;;1.50;;
46613;SDS011;32338;50.430;6.806;2022-08-24T11:01:34;2.00;;;1.20;;
46613;SDS011;32338;50.430;6.806;2022-08-24T11:04:04;4.80;;;1.35;;
46613;SDS011;32338;50.430;6.806;2022-08-24T11:06:34;6.30;;;1.65;;
46613;SDS011;32338;50.430;6.806;2022-08-24T11:09:04;2.85;;;1.40;;
46613;SDS011;32338;50.430;6.806;2022-08-24T11:11:34;3.67;;;1.52;;
46613;SDS011;32338;50.430;6.806;2022-08-24T11:14:03;2.22;;;1.33;;
46613;SDS011;32338;50.430;6.806;2022-08-24T11:16:34;2.10;;;1.30;;
46613;SDS011;32338;50.430;6.806;2022-08-24T11:19:04;2.92;;;1.42;;
46613;SDS011;32338;50.430;6.806;2022-08-24T11:21:39;2.03;;;1.40;;
46613;SDS011;32338;50.430;6.806;2022-08-24T11:24:10;2.95;;;1.30;;
46613;SDS011;32338;50.430;6.806;2022-08-24T11:26:50;2.13;;;1.20;;
46613;SDS011;32338;50.430;6.806;2022-08-24T11:29:20;4.28;;;1.40;;
46613;SDS011;32338;50.430;6.806;2022-08-24T11:31:50;3.20;;;1.50;;
46613;SDS011;32338;50.430;6.806;2022-08-24T11:34:18;3.47;;;1.77;;
46613;SDS011;32338;50.430;6.806;2022-08-24T11:36:56;3.35;;;1.40;;
46613;SDS011;32338;50.430;6.806;2022-08-24T11:39:25;2.20;;;1.60;;
46613;SDS011;32338;50.430;6.806;2022-08-24T11:41:57;1.30;;;1.10;;
46613;SDS011;32338;50.430;6.806;2022-08-24T11:44:34;5.40;;;1.48;;
46613;SDS011;32338;50.430;6.806;2022-08-24T11:47:11;1.23;;;1.10;;
46613;SDS011;32338;50.430;6.806;2022-08-24T11:50:02;2.33;;;1.48;;
46613;SDS011;32338;50.430;6.806;2022-08-24T11:52:43;4.18;;;1.38;;
46613;SDS011;32338;50.430;6.806;2022-08-24T11:55:21;4.22;;;1.42;;
46613;SDS011;32338;50.430;6.806;2022-08-24T11:57:56;3.03;;;1.50;;
46613;SDS011;32338;50.430;6.806;2022-08-24T12:00:32;1.83;;;1.15;;
46613;SDS011;32338;50.430;6.806;2022-08-24T12:03:15;4.97;;;1.67;;
46613;SDS011;32338;50.430;6.806;2022-08-24T12:06:08;1.83;;;1.23;;
46613;SDS011;32338;50.430;6.806;2022-08-24T12:08:45;4.53;;;1.48;;
46613;SDS011;32338;50.430;6.806;2022-08-24T12:11:22;1.98;;;1.35;;
46613;SDS011;32338;50.430;6.806;2022-08-24T12:13:58;3.60;;;1.65;;
46613;SDS011;32338;50.430;6.806;2022-08-24T12:16:32;1.58;;;1.40;;
46613;SDS011;32338;50.430;6.806;2022-08-24T12:19:07;2.47;;;1.40;;
46613;SDS011;32338;50.430;6.806;2022-08-24T12:21:37;1.52;;;1.30;;
46613;SDS011;32338;50.430;6.806;2022-08-24T12:24:07;1.25;;;1.15;;
46613;SDS011;32338;50.430;6.806;2022-08-24T12:26:39;2.22;;;1.50;;
46613;SDS011;32338;50.430;6.806;2022-08-24T12:29:10;3.25;;;1.35;;
46613;SDS011;32338;50.430;6.806;2022-08-24T12:31:42;4.15;;;1.38;;
46613;SDS011;32338;50.430;6.806;2022-08-24T12:34:17;3.33;;;1.30;;
46613;SDS011;32338;50.430;6.806;2022-08-24T12:36:54;1.92;;;1.55;;
46613;SDS011;32338;50.430;6.806;2022-08-24T12:39:27;2.47;;;1.30;;
46613;SDS011;32338;50.430;6.806;2022-08-24T12:42:03;2.67;;;1.27;;
46613;SDS011;32338;50.430;6.806;2022-08-24T12:44:44;1.95;;;1.40;;
46613;SDS011;32338;50.430;6.806;2022-08-24T12:47:22;3.83;;;1.50;;
46613;SDS011;32338;50.430;6.806;2022-08-24T12:49:55;3.22;;;1.90;;
46613;SDS011;32338;50.430;6.806;2022-08-24T12:52:33;5.40;;;1.30;;
46613;SDS011;32338;50.430;6.806;2022-08-24T12:55:22;2.17;;;1.20;;
46613;SDS011;32338;50.430;6.806;2022-08-24T12:58:20;2.38;;;1.33;;
46613;SDS011;32338;50.430;6.806;2022-08-24T13:01:03;5.65;;;1.45;;
46613;SDS011;32338;50.430;6.806;2022-08-24T13:03:32;1.17;;;1.08;;
46613;SDS011;32338;50.430;6.806;2022-08-24T13:06:03;5.57;;;1.23;;
46613;SDS011;32338;50.430;6.806;2022-08-24T13:08:33;1.50;;;1.20;;
46613;SDS011;32338;50.430;6.806;2022-08-24T13:11:04;2.78;;;1.40;;
46613;SDS011;32338;50.430;6.806;2022-08-24T13:13:40;4.38;;;1.42;;
46613;SDS011;32338;50.430;6.806;2022-08-24T13:16:10;2.72;;;1.67;;
46613;SDS011;32338;50.430;6.806;2022-08-24T13:18:48;3.63;;;1.45;;
46613;SDS011;32338;50.430;6.806;2022-08-24T13:30:22;1.40;;;1.30;;
46613;SDS011;32338;50.430;6.806;2022-08-24T13:32:56;6.75;;;1.60;;
46613;SDS011;32338;50.430;6.806;2022-08-24T13:35:29;3.72;;;1.40;;
46613;SDS011;32338;50.430;6.806;2022-08-24T13:38:23;6.47;;;1.45;;
46613;SDS011;32338;50.430;6.806;2022-08-24T13:43:41;3.65;;;1.50;;
46613;SDS011;32338;50.430;6.806;2022-08-24T13:46:17;2.53;;;1.30;;
46613;SDS011;32338;50.430;6.806;2022-08-24T13:48:51;4.28;;;1.30;;
46613;SDS011;32338;50.430;6.806;2022-08-24T13:51:25;1.50;;;1.23;;
46613;SDS011;32338;50.430;6.806;2022-08-24T13:54:16;1.88;;;1.20;;
46613;SDS011;32338;50.430;6.806;2022-08-24T13:57:03;2.10;;;1.20;;
46613;SDS011;32338;50.430;6.806;2022-08-24T13:59:54;2.83;;;1.60;;
46613;SDS011;32338;50.430;6.806;2022-08-24T14:02:30;2.80;;;1.40;;
46613;SDS011;32338;50.430;6.806;2022-08-24T14:05:08;2.22;;;1.25;;
46613;SDS011;32338;50.430;6.806;2022-08-24T14:07:46;2.22;;;1.17;;
46613;SDS011;32338;50.430;6.806;2022-08-24T14:10:34;3.15;;;1.38;;
46613;SDS011;32338;50.430;6.806;2022-08-24T14:13:16;1.55;;;1.20;;
46613;SDS011;32338;50.430;6.806;2022-08-24T14:15:57;1.27;;;1.17;;
46613;SDS011;32338;50.430;6.806;2022-08-24T14:18:49;2.65;;;1.40;;
46613;SDS011;32338;50.430;6.806;2022-08-24T14:21:24;7.18;;;1.40;;
46613;SDS011;32338;50.430;6.806;2022-08-24T14:24:03;2.17;;;1.25;;
46613;SDS011;32338;50.430;6.806;2022-08-24T14:29:39;7.20;;;1.48;;
46613;SDS011;32338;50.430;6.806;2022-08-24T14:35:03;3.28;;;1.55;;
46613;SDS011;32338;50.430;6.806;2022-08-24T14:37:48;1.80;;;1.30;;
46613;SDS011;32338;50.430;6.806;2022-08-24T14:40:22;5.07;;;1.30;;
46613;SDS011;32338;50.430;6.806;2022-08-24T14:42:57;2.55;;;1.50;;
46613;SDS011;32338;50.430;6.806;2022-08-24T14:45:25;1.50;;;1.30;;
46613;SDS011;32338;50.430;6.806;2022-08-24T14:48:18;1.65;;;1.40;;
46613;SDS011;32338;50.430;6.806;2022-08-24T14:50:56;2.47;;;1.63;;
46613;SDS011;32338;50.430;6.806;2022-08-24T14:53:35;2.03;;;1.30;;
46613;SDS011;32338;50.430;6.806;2022-08-24T14:56:27;3.35;;;1.60;;
46613;SDS011;32338;50.430;6.806;2022-08-24T14:59:12;4.05;;;1.20;;
46613;SDS011;32338;50.430;6.806;2022-08-24T15:01:48;1.42;;;1.20;;
46613;SDS011;32338;50.430;6.806;2022-08-24T15:07:26;1.60;;;1.20;;
46613;SDS011;32338;50.430;6.806;2022-08-24T15:09:55;3.70;;;1.35;;
46613;SDS011;32338;50.430;6.806;2022-08-24T15:15:13;4.47;;;1.30;;
46613;SDS011;32338;50.430;6.806;2022-08-24T15:17:50;1.90;;;1.10;;
46613;SDS011;32338;50.430;6.806;2022-08-24T15:20:31;1.60;;;1.27;;
46613;SDS011;32338;50.430;6.806;2022-08-24T15:23:10;5.18;;;1.60;;
46613;SDS011;32338;50.430;6.806;2022-08-24T15:25:45;2.08;;;1.50;;
46613;SDS011;32338;50.430;6.806;2022-08-24T15:28:20;1.77;;;1.42;;
46613;SDS011;32338;50.430;6.806;2022-08-24T15:30:54;1.53;;;1.20;;
46613;SDS011;32338;50.430;6.806;2022-08-24T15:33:23;1.42;;;1.33;;
46613;SDS011;32338;50.430;6.806;2022-08-24T15:36:02;6.32;;;1.40;;
46613;SDS011;32338;50.430;6.806;2022-08-24T15:38:32;4.60;;;1.40;;
46613;SDS011;32338;50.430;6.806;2022-08-24T15:41:02;4.55;;;1.40;;
46613;SDS011;32338;50.430;6.806;2022-08-24T15:43:31;3.00;;;1.30;;
46613;SDS011;32338;50.430;6.806;2022-08-24T15:45:59;3.00;;;1.30;;
46613;SDS011;32338;50.430;6.806;2022-08-24T15:48:26;4.80;;;1.40;;
46613;SDS011;32338;50.430;6.806;2022-08-24T15:50:54;4.68;;;1.60;;
46613;SDS011;32338;50.430;6.806;2022-08-24T15:53:29;5.55;;;1.30;;
46613;SDS011;32338;50.430;6.806;2022-08-24T15:55:58;5.75;;;1.30;;